sensor_id;sensor_type;location;lat;lon;timestamp;P1;durP1;ratioP1;P2;durP2;ratioP2
13443;SDS011;6794;59.218;18.218;2023-05-27T00:00:34;4.10;;;1.30;;
13443;SDS011;6794;59.218;18.218;2023-05-27T00:03:00;2.53;;;1.10;;
13443;SDS011;6794;59.218;18.218;2023-05-27T00:05:26;3.07;;;1.30;;
13443;SDS011;6794;59.218;18.218;2023-05-27T00:07:52;1.10;;;0.90;;
13443;SDS011;6794;59.218;18.218;2023-05-27T00:10:18;1.23;;;1.13;;
13443;SDS011;6794;59.218;18.218;2023-05-27T00:12:44;2.67;;;1.53;;
13443;SDS011;6794;59.218;18.218;2023-05-27T00:15:11;2.13;;;1.30;;
13443;SDS011;6794;59.218;18.218;2023-05-27T00:17:37;2.40;;;1.90;;
13443;SDS011;6794;59.218;18.218;2023-05-27T00:20:05;3.23;;;1.90;;
13443;SDS011;6794;59.218;18.218;2023-05-27T00:22:33;1.97;;;1.60;;
13443;SDS011;6794;59.218;18.218;2023-05-27T00:25:02;3.57;;;1.90;;
13443;SDS011;6794;59.218;18.218;2023-05-27T00:27:28;3.27;;;1.70;;
13443;SDS011;6794;59.218;18.218;2023-05-27T00:29:54;2.93;;;1.73;;
13443;SDS011;6794;59.218;18.218;2023-05-27T00:32:20;2.70;;;1.70;;
13443;SDS011;6794;59.218;18.218;2023-05-27T00:34:46;3.33;;;1.60;;
13443;SDS011;6794;59.218;18.218;2023-05-27T00:37:13;2.73;;;1.60;;
13443;SDS011;6794;59.218;18.218;2023-05-27T00:39:39;3.50;;;1.50;;
13443;SDS011;6794;59.218;18.218;2023-05-27T00:42:05;2.47;;;1.50;;
13443;SDS011;6794;59.218;18.218;2023-05-27T00:44:32;3.80;;;1.57;;
13443;SDS011;6794;59.218;18.218;2023-05-27T00:46:58;3.33;;;1.70;;
13443;SDS011;6794;59.218;18.218;2023-05-27T00:49:25;2.13;;;1.40;;
13443;SDS011;6794;59.218;18.218;2023-05-27T00:51:51;3.10;;;1.67;;
13443;SDS011;6794;59.218;18.218;2023-05-27T00:54:18;4.57;;;1.50;;
13443;SDS011;6794;59.218;18.218;2023-05-27T00:56:44;1.23;;;1.13;;
13443;SDS011;6794;59.218;18.218;2023-05-27T00:59:10;1.77;;;1.23;;
13443;SDS011;6794;59.218;18.218;2023-05-27T01:01:36;2.97;;;1.87;;
13443;SDS011;6794;59.218;18.218;2023-05-27T01:04:04;4.25;;;1.55;;
13443;SDS011;6794;59.218;18.218;2023-05-27T01:11:43;2.20;;;1.40;;
13443;SDS011;6794;59.218;18.218;2023-05-27T01:14:11;2.97;;;1.47;;
13443;SDS011;6794;59.218;18.218;2023-05-27T01:16:37;3.07;;;1.47;;
13443;SDS011;6794;59.218;18.218;2023-05-27T01:19:14;4.20;;;1.17;;
13443;SDS011;6794;59.218;18.218;2023-05-27T01:21:41;2.70;;;1.23;;
13443;SDS011;6794;59.218;18.218;2023-05-27T01:24:09;1.77;;;1.37;;
13443;SDS011;6794;59.218;18.218;2023-05-27T01:26:36;4.57;;;1.30;;
13443;SDS011;6794;59.218;18.218;2023-05-27T01:29:02;3.63;;;1.40;;
13443;SDS011;6794;59.218;18.218;2023-05-27T01:31:34;2.00;;;1.70;;
13443;SDS011;6794;59.218;18.218;2023-05-27T01:34:08;4.13;;;1.50;;
13443;SDS011;6794;59.218;18.218;2023-05-27T01:36:36;2.77;;;1.70;;
13443;SDS011;6794;59.218;18.218;2023-05-27T01:39:03;4.23;;;1.70;;
13443;SDS011;6794;59.218;18.218;2023-05-27T01:41:30;2.83;;;1.50;;
13443;SDS011;6794;59.218;18.218;2023-05-27T01:43:57;3.23;;;1.90;;
13443;SDS011;6794;59.218;18.218;2023-05-27T01:46:24;4.83;;;2.17;;
13443;SDS011;6794;59.218;18.218;2023-05-27T01:48:50;2.70;;;1.73;;
13443;SDS011;6794;59.218;18.218;2023-05-27T01:51:16;4.93;;;2.03;;
13443;SDS011;6794;59.218;18.218;2023-05-27T01:53:42;4.00;;;1.80;;
13443;SDS011;6794;59.218;18.218;2023-05-27T01:56:08;5.37;;;2.17;;
13443;SDS011;6794;59.218;18.218;2023-05-27T01:58:34;4.70;;;1.63;;
13443;SDS011;6794;59.218;18.218;2023-05-27T02:01:00;7.13;;;2.07;;
13443;SDS011;6794;59.218;18.218;2023-05-27T02:03:26;3.37;;;1.90;;
13443;SDS011;6794;59.218;18.218;2023-05-27T02:05:52;4.68;;;3.03;;
13443;SDS011;6794;59.218;18.218;2023-05-27T02:08:18;3.93;;;2.57;;
13443;SDS011;6794;59.218;18.218;2023-05-27T02:10:44;4.87;;;2.40;;
13443;SDS011;6794;59.218;18.218;2023-05-27T02:13:10;3.87;;;2.40;;
13443;SDS011;6794;59.218;18.218;2023-05-27T02:15:37;4.03;;;2.17;;
13443;SDS011;6794;59.218;18.218;2023-05-27T02:18:03;3.80;;;2.20;;
13443;SDS011;6794;59.218;18.218;2023-05-27T02:20:30;3.20;;;2.33;;
13443;SDS011;6794;59.218;18.218;2023-05-27T02:22:56;3.10;;;1.63;;
13443;SDS011;6794;59.218;18.218;2023-05-27T02:25:22;2.13;;;1.53;;
13443;SDS011;6794;59.218;18.218;2023-05-27T02:27:48;6.43;;;1.87;;
13443;SDS011;6794;59.218;18.218;2023-05-27T02:30:17;3.40;;;1.70;;
13443;SDS011;6794;59.218;18.218;2023-05-27T02:32:43;3.97;;;1.80;;
13443;SDS011;6794;59.218;18.218;2023-05-27T02:35:13;4.00;;;1.77;;
13443;SDS011;6794;59.218;18.218;2023-05-27T02:37:40;3.93;;;1.70;;
13443;SDS011;6794;59.218;18.218;2023-05-27T02:40:06;5.77;;;1.83;;
13443;SDS011;6794;59.218;18.218;2023-05-27T02:42:34;1.53;;;1.33;;
13443;SDS011;6794;59.218;18.218;2023-05-27T02:45:00;2.93;;;1.40;;
13443;SDS011;6794;59.218;18.218;2023-05-27T02:47:26;3.93;;;1.40;;
13443;SDS011;6794;59.218;18.218;2023-05-27T02:49:52;2.70;;;1.27;;
13443;SDS011;6794;59.218;18.218;2023-05-27T02:52:18;3.83;;;1.67;;
13443;SDS011;6794;59.218;18.218;2023-05-27T02:54:45;2.87;;;1.47;;
13443;SDS011;6794;59.218;18.218;2023-05-27T02:57:11;2.37;;;1.40;;
13443;SDS011;6794;59.218;18.218;2023-05-27T02:59:37;4.63;;;1.73;;
13443;SDS011;6794;59.218;18.218;2023-05-27T03:02:03;2.77;;;1.23;;
13443;SDS011;6794;59.218;18.218;2023-05-27T03:04:29;4.10;;;1.83;;
13443;SDS011;6794;59.218;18.218;2023-05-27T03:06:55;5.23;;;1.97;;
13443;SDS011;6794;59.218;18.218;2023-05-27T03:09:21;4.70;;;1.83;;
13443;SDS011;6794;59.218;18.218;2023-05-27T03:11:47;1.97;;;1.47;;
13443;SDS011;6794;59.218;18.218;2023-05-27T03:14:13;3.93;;;2.03;;
13443;SDS011;6794;59.218;18.218;2023-05-27T03:16:39;4.13;;;1.40;;
13443;SDS011;6794;59.218;18.218;2023-05-27T03:19:05;3.00;;;1.60;;
13443;SDS011;6794;59.218;18.218;2023-05-27T03:21:33;2.60;;;1.50;;
13443;SDS011;6794;59.218;18.218;2023-05-27T03:24:00;3.90;;;1.50;;
13443;SDS011;6794;59.218;18.218;2023-05-27T03:26:26;2.83;;;1.73;;
13443;SDS011;6794;59.218;18.218;2023-05-27T03:28:53;2.43;;;1.37;;
13443;SDS011;6794;59.218;18.218;2023-05-27T03:31:19;4.07;;;1.70;;
13443;SDS011;6794;59.218;18.218;2023-05-27T03:33:45;2.50;;;1.67;;
13443;SDS011;6794;59.218;18.218;2023-05-27T03:36:11;2.83;;;1.70;;
13443;SDS011;6794;59.218;18.218;2023-05-27T03:38:37;3.30;;;1.40;;
13443;SDS011;6794;59.218;18.218;2023-05-27T03:41:03;4.27;;;1.87;;
13443;SDS011;6794;59.218;18.218;2023-05-27T03:43:29;3.40;;;1.80;;
13443;SDS011;6794;59.218;18.218;2023-05-27T03:45:55;3.83;;;1.63;;
13443;SDS011;6794;59.218;18.218;2023-05-27T03:48:21;2.73;;;1.50;;
13443;SDS011;6794;59.218;18.218;2023-05-27T03:50:47;2.83;;;1.67;;
13443;SDS011;6794;59.218;18.218;2023-05-27T03:53:13;4.67;;;1.70;;
13443;SDS011;6794;59.218;18.218;2023-05-27T03:55:39;3.47;;;1.63;;
13443;SDS011;6794;59.218;18.218;2023-05-27T03:58:05;4.40;;;1.90;;
13443;SDS011;6794;59.218;18.218;2023-05-27T04:00:31;3.43;;;1.63;;
13443;SDS011;6794;59.218;18.218;2023-05-27T04:02:58;3.90;;;1.60;;
13443;SDS011;6794;59.218;18.218;2023-05-27T04:05:24;2.05;;;1.48;;
13443;SDS011;6794;59.218;18.218;2023-05-27T04:07:50;4.13;;;1.53;;
13443;SDS011;6794;59.218;18.218;2023-05-27T04:10:16;2.03;;;1.23;;
13443;SDS011;6794;59.218;18.218;2023-05-27T04:12:42;4.60;;;1.40;;
13443;SDS011;6794;59.218;18.218;2023-05-27T04:15:09;5.23;;;1.70;;
13443;SDS011;6794;59.218;18.218;2023-05-27T04:17:35;2.67;;;1.23;;
13443;SDS011;6794;59.218;18.218;2023-05-27T04:20:01;4.07;;;1.40;;
13443;SDS011;6794;59.218;18.218;2023-05-27T04:22:36;4.07;;;1.60;;
13443;SDS011;6794;59.218;18.218;2023-05-27T04:25:02;3.37;;;1.37;;
13443;SDS011;6794;59.218;18.218;2023-05-27T04:27:28;2.63;;;1.33;;
13443;SDS011;6794;59.218;18.218;2023-05-27T04:29:54;3.30;;;1.70;;
13443;SDS011;6794;59.218;18.218;2023-05-27T04:32:20;1.97;;;1.27;;
13443;SDS011;6794;59.218;18.218;2023-05-27T04:34:46;1.47;;;1.20;;
13443;SDS011;6794;59.218;18.218;2023-05-27T04:37:13;1.90;;;1.07;;
13443;SDS011;6794;59.218;18.218;2023-05-27T04:39:41;2.70;;;1.20;;
13443;SDS011;6794;59.218;18.218;2023-05-27T04:42:10;3.17;;;1.40;;
13443;SDS011;6794;59.218;18.218;2023-05-27T04:44:37;1.67;;;1.00;;
13443;SDS011;6794;59.218;18.218;2023-05-27T04:47:04;1.43;;;1.10;;
13443;SDS011;6794;59.218;18.218;2023-05-27T04:49:30;3.93;;;1.10;;
13443;SDS011;6794;59.218;18.218;2023-05-27T04:51:56;2.17;;;1.00;;
13443;SDS011;6794;59.218;18.218;2023-05-27T04:54:24;1.63;;;1.13;;
13443;SDS011;6794;59.218;18.218;2023-05-27T04:56:50;4.93;;;1.23;;
13443;SDS011;6794;59.218;18.218;2023-05-27T04:59:17;1.87;;;1.10;;
13443;SDS011;6794;59.218;18.218;2023-05-27T05:01:45;2.90;;;0.83;;
13443;SDS011;6794;59.218;18.218;2023-05-27T05:04:34;1.20;;;0.90;;
13443;SDS011;6794;59.218;18.218;2023-05-27T05:07:00;3.47;;;1.45;;
13443;SDS011;6794;59.218;18.218;2023-05-27T05:09:26;2.03;;;1.30;;
13443;SDS011;6794;59.218;18.218;2023-05-27T05:11:52;2.87;;;1.07;;
13443;SDS011;6794;59.218;18.218;2023-05-27T05:14:18;3.50;;;1.20;;
13443;SDS011;6794;59.218;18.218;2023-05-27T05:16:44;2.37;;;1.33;;
13443;SDS011;6794;59.218;18.218;2023-05-27T05:19:11;3.33;;;1.10;;
13443;SDS011;6794;59.218;18.218;2023-05-27T05:21:37;2.17;;;1.00;;
13443;SDS011;6794;59.218;18.218;2023-05-27T05:24:03;1.60;;;1.00;;
13443;SDS011;6794;59.218;18.218;2023-05-27T05:26:29;1.40;;;0.83;;
13443;SDS011;6794;59.218;18.218;2023-05-27T05:28:55;0.97;;;0.90;;
13443;SDS011;6794;59.218;18.218;2023-05-27T05:31:21;1.53;;;1.10;;
13443;SDS011;6794;59.218;18.218;2023-05-27T05:33:48;1.33;;;1.17;;
13443;SDS011;6794;59.218;18.218;2023-05-27T05:36:14;2.20;;;0.90;;
13443;SDS011;6794;59.218;18.218;2023-05-27T05:38:40;2.17;;;0.90;;
13443;SDS011;6794;59.218;18.218;2023-05-27T05:41:06;1.20;;;0.77;;
13443;SDS011;6794;59.218;18.218;2023-05-27T05:43:32;1.40;;;0.80;;
13443;SDS011;6794;59.218;18.218;2023-05-27T05:45:58;1.00;;;0.90;;
13443;SDS011;6794;59.218;18.218;2023-05-27T05:48:26;0.87;;;0.80;;
13443;SDS011;6794;59.218;18.218;2023-05-27T05:50:52;2.67;;;0.90;;
13443;SDS011;6794;59.218;18.218;2023-05-27T05:53:18;1.87;;;0.80;;
13443;SDS011;6794;59.218;18.218;2023-05-27T05:55:44;1.37;;;1.03;;
13443;SDS011;6794;59.218;18.218;2023-05-27T05:58:10;2.40;;;1.53;;
13443;SDS011;6794;59.218;18.218;2023-05-27T06:00:36;2.17;;;1.23;;
13443;SDS011;6794;59.218;18.218;2023-05-27T06:03:02;1.77;;;1.07;;
13443;SDS011;6794;59.218;18.218;2023-05-27T06:05:28;1.47;;;0.97;;
13443;SDS011;6794;59.218;18.218;2023-05-27T06:07:54;2.70;;;1.10;;
13443;SDS011;6794;59.218;18.218;2023-05-27T06:10:20;1.87;;;1.00;;
13443;SDS011;6794;59.218;18.218;2023-05-27T06:12:46;1.20;;;0.87;;
13443;SDS011;6794;59.218;18.218;2023-05-27T06:15:12;1.00;;;0.90;;
13443;SDS011;6794;59.218;18.218;2023-05-27T06:17:38;1.90;;;1.20;;
13443;SDS011;6794;59.218;18.218;2023-05-27T06:20:05;2.73;;;0.90;;
13443;SDS011;6794;59.218;18.218;2023-05-27T06:22:31;1.20;;;0.90;;
13443;SDS011;6794;59.218;18.218;2023-05-27T06:24:57;6.23;;;1.00;;
13443;SDS011;6794;59.218;18.218;2023-05-27T06:27:23;1.77;;;1.33;;
13443;SDS011;6794;59.218;18.218;2023-05-27T06:29:49;1.13;;;0.77;;
13443;SDS011;6794;59.218;18.218;2023-05-27T06:32:15;1.20;;;1.00;;
13443;SDS011;6794;59.218;18.218;2023-05-27T06:34:42;1.97;;;1.00;;
13443;SDS011;6794;59.218;18.218;2023-05-27T06:37:08;2.27;;;0.90;;
13443;SDS011;6794;59.218;18.218;2023-05-27T06:39:34;2.47;;;1.20;;
13443;SDS011;6794;59.218;18.218;2023-05-27T06:42:00;1.13;;;0.93;;
13443;SDS011;6794;59.218;18.218;2023-05-27T06:44:26;1.50;;;0.90;;
13443;SDS011;6794;59.218;18.218;2023-05-27T06:46:53;1.73;;;1.00;;
13443;SDS011;6794;59.218;18.218;2023-05-27T06:49:19;0.87;;;0.83;;
13443;SDS011;6794;59.218;18.218;2023-05-27T06:51:45;2.33;;;1.33;;
13443;SDS011;6794;59.218;18.218;2023-05-27T06:54:11;2.80;;;1.93;;
13443;SDS011;6794;59.218;18.218;2023-05-27T06:56:37;2.43;;;1.13;;
13443;SDS011;6794;59.218;18.218;2023-05-27T06:59:03;3.57;;;1.30;;
13443;SDS011;6794;59.218;18.218;2023-05-27T07:01:30;1.50;;;1.40;;
13443;SDS011;6794;59.218;18.218;2023-05-27T07:03:56;1.85;;;1.13;;
13443;SDS011;6794;59.218;18.218;2023-05-27T07:06:22;1.10;;;0.97;;
13443;SDS011;6794;59.218;18.218;2023-05-27T07:08:48;1.60;;;1.00;;
13443;SDS011;6794;59.218;18.218;2023-05-27T07:11:14;1.33;;;0.97;;
13443;SDS011;6794;59.218;18.218;2023-05-27T07:13:41;1.07;;;1.00;;
13443;SDS011;6794;59.218;18.218;2023-05-27T07:16:07;1.50;;;1.00;;
13443;SDS011;6794;59.218;18.218;2023-05-27T07:18:33;5.23;;;1.40;;
13443;SDS011;6794;59.218;18.218;2023-05-27T07:20:59;3.53;;;1.00;;
13443;SDS011;6794;59.218;18.218;2023-05-27T07:23:25;1.47;;;0.90;;
13443;SDS011;6794;59.218;18.218;2023-05-27T07:25:51;2.00;;;1.00;;
13443;SDS011;6794;59.218;18.218;2023-05-27T07:28:17;7.47;;;1.10;;
13443;SDS011;6794;59.218;18.218;2023-05-27T07:30:43;2.83;;;1.23;;
13443;SDS011;6794;59.218;18.218;2023-05-27T07:33:09;1.37;;;0.97;;
13443;SDS011;6794;59.218;18.218;2023-05-27T07:35:35;1.30;;;0.93;;
13443;SDS011;6794;59.218;18.218;2023-05-27T07:38:01;1.93;;;1.00;;
13443;SDS011;6794;59.218;18.218;2023-05-27T07:40:27;2.23;;;1.10;;
13443;SDS011;6794;59.218;18.218;2023-05-27T07:42:53;2.40;;;1.20;;
13443;SDS011;6794;59.218;18.218;2023-05-27T07:45:19;1.90;;;1.00;;
13443;SDS011;6794;59.218;18.218;2023-05-27T07:47:47;2.40;;;1.23;;
13443;SDS011;6794;59.218;18.218;2023-05-27T07:50:13;1.00;;;0.83;;
13443;SDS011;6794;59.218;18.218;2023-05-27T07:52:40;3.37;;;1.37;;
13443;SDS011;6794;59.218;18.218;2023-05-27T07:55:06;2.60;;;1.00;;
13443;SDS011;6794;59.218;18.218;2023-05-27T07:57:32;0.93;;;0.87;;
13443;SDS011;6794;59.218;18.218;2023-05-27T07:59:58;1.00;;;0.80;;
13443;SDS011;6794;59.218;18.218;2023-05-27T08:02:24;1.50;;;0.90;;
13443;SDS011;6794;59.218;18.218;2023-05-27T08:04:51;1.33;;;0.90;;
13443;SDS011;6794;59.218;18.218;2023-05-27T08:07:17;2.57;;;0.93;;
13443;SDS011;6794;59.218;18.218;2023-05-27T08:09:43;1.97;;;1.00;;
13443;SDS011;6794;59.218;18.218;2023-05-27T08:12:09;1.80;;;1.00;;
13443;SDS011;6794;59.218;18.218;2023-05-27T08:14:35;1.53;;;1.10;;
13443;SDS011;6794;59.218;18.218;2023-05-27T08:17:01;1.77;;;0.80;;
13443;SDS011;6794;59.218;18.218;2023-05-27T08:19:28;1.80;;;1.03;;
13443;SDS011;6794;59.218;18.218;2023-05-27T08:21:54;2.07;;;0.90;;
13443;SDS011;6794;59.218;18.218;2023-05-27T08:24:21;1.10;;;0.80;;
13443;SDS011;6794;59.218;18.218;2023-05-27T08:26:47;2.80;;;1.03;;
13443;SDS011;6794;59.218;18.218;2023-05-27T08:29:14;2.50;;;0.70;;
13443;SDS011;6794;59.218;18.218;2023-05-27T08:31:41;1.50;;;0.90;;
13443;SDS011;6794;59.218;18.218;2023-05-27T08:34:07;1.07;;;0.80;;
13443;SDS011;6794;59.218;18.218;2023-05-27T08:36:33;1.27;;;0.90;;
13443;SDS011;6794;59.218;18.218;2023-05-27T08:38:59;1.57;;;0.87;;
13443;SDS011;6794;59.218;18.218;2023-05-27T08:41:26;1.13;;;0.70;;
13443;SDS011;6794;59.218;18.218;2023-05-27T08:43:52;1.43;;;0.87;;
13443;SDS011;6794;59.218;18.218;2023-05-27T08:46:18;1.00;;;0.70;;
13443;SDS011;6794;59.218;18.218;2023-05-27T08:48:46;1.67;;;0.80;;
13443;SDS011;6794;59.218;18.218;2023-05-27T08:51:13;1.20;;;1.10;;
13443;SDS011;6794;59.218;18.218;2023-05-27T08:53:39;1.73;;;0.80;;
13443;SDS011;6794;59.218;18.218;2023-05-27T08:56:05;3.10;;;0.97;;
13443;SDS011;6794;59.218;18.218;2023-05-27T08:58:32;0.97;;;0.70;;
13443;SDS011;6794;59.218;18.218;2023-05-27T09:00:58;1.13;;;0.90;;
13443;SDS011;6794;59.218;18.218;2023-05-27T10:34:09;1.00;;;0.90;;
13443;SDS011;6794;59.218;18.218;2023-05-27T10:36:35;3.33;;;0.87;;
13443;SDS011;6794;59.218;18.218;2023-05-27T10:39:05;1.90;;;0.90;;
13443;SDS011;6794;59.218;18.218;2023-05-27T10:44:09;1.13;;;1.03;;
13443;SDS011;6794;59.218;18.218;2023-05-27T10:46:42;2.07;;;1.13;;
13443;SDS011;6794;59.218;18.218;2023-05-27T10:49:16;2.17;;;1.10;;
13443;SDS011;6794;59.218;18.218;2023-05-27T10:51:48;4.17;;;1.43;;
13443;SDS011;6794;59.218;18.218;2023-05-27T10:54:14;1.50;;;1.00;;
13443;SDS011;6794;59.218;18.218;2023-05-27T10:56:48;1.87;;;1.00;;
13443;SDS011;6794;59.218;18.218;2023-05-27T10:59:17;1.20;;;1.07;;
13443;SDS011;6794;59.218;18.218;2023-05-27T11:01:46;2.40;;;1.10;;
13443;SDS011;6794;59.218;18.218;2023-05-27T11:04:12;3.47;;;1.00;;
13443;SDS011;6794;59.218;18.218;2023-05-27T11:06:39;2.60;;;1.10;;
13443;SDS011;6794;59.218;18.218;2023-05-27T11:09:06;2.63;;;1.23;;
13443;SDS011;6794;59.218;18.218;2023-05-27T11:11:34;2.30;;;1.10;;
13443;SDS011;6794;59.218;18.218;2023-05-27T11:14:02;1.93;;;1.07;;
13443;SDS011;6794;59.218;18.218;2023-05-27T11:16:28;1.50;;;1.20;;
13443;SDS011;6794;59.218;18.218;2023-05-27T11:18:54;1.77;;;1.07;;
13443;SDS011;6794;59.218;18.218;2023-05-27T11:21:20;1.23;;;1.00;;
13443;SDS011;6794;59.218;18.218;2023-05-27T11:23:47;1.57;;;0.97;;
13443;SDS011;6794;59.218;18.218;2023-05-27T11:26:20;2.43;;;0.93;;
13443;SDS011;6794;59.218;18.218;2023-05-27T11:31:13;2.07;;;1.20;;
13443;SDS011;6794;59.218;18.218;2023-05-27T11:33:40;4.70;;;1.83;;
13443;SDS011;6794;59.218;18.218;2023-05-27T11:36:07;2.70;;;1.40;;
13443;SDS011;6794;59.218;18.218;2023-05-27T11:41:12;1.50;;;1.10;;
13443;SDS011;6794;59.218;18.218;2023-05-27T11:43:46;3.57;;;1.30;;
13443;SDS011;6794;59.218;18.218;2023-05-27T11:46:12;1.50;;;1.17;;
13443;SDS011;6794;59.218;18.218;2023-05-27T11:48:38;2.07;;;1.37;;
13443;SDS011;6794;59.218;18.218;2023-05-27T11:51:04;1.37;;;1.00;;
13443;SDS011;6794;59.218;18.218;2023-05-27T11:53:30;3.77;;;1.23;;
13443;SDS011;6794;59.218;18.218;2023-05-27T11:55:56;2.97;;;1.83;;
13443;SDS011;6794;59.218;18.218;2023-05-27T11:58:22;1.37;;;1.07;;
13443;SDS011;6794;59.218;18.218;2023-05-27T12:00:49;1.50;;;1.20;;
13443;SDS011;6794;59.218;18.218;2023-05-27T12:03:15;1.67;;;1.13;;
13443;SDS011;6794;59.218;18.218;2023-05-27T12:05:42;2.80;;;1.20;;
13443;SDS011;6794;59.218;18.218;2023-05-27T12:08:08;2.60;;;1.43;;
13443;SDS011;6794;59.218;18.218;2023-05-27T12:10:34;2.37;;;1.27;;
13443;SDS011;6794;59.218;18.218;2023-05-27T12:13:03;1.60;;;1.13;;
13443;SDS011;6794;59.218;18.218;2023-05-27T12:15:30;1.90;;;1.37;;
13443;SDS011;6794;59.218;18.218;2023-05-27T12:17:57;2.33;;;1.27;;
13443;SDS011;6794;59.218;18.218;2023-05-27T12:20:23;1.57;;;0.97;;
13443;SDS011;6794;59.218;18.218;2023-05-27T12:22:52;4.47;;;1.13;;
13443;SDS011;6794;59.218;18.218;2023-05-27T12:25:19;2.43;;;1.13;;
13443;SDS011;6794;59.218;18.218;2023-05-27T12:27:45;1.67;;;1.17;;
13443;SDS011;6794;59.218;18.218;2023-05-27T12:30:11;2.17;;;1.10;;
13443;SDS011;6794;59.218;18.218;2023-05-27T12:32:38;1.20;;;1.10;;
13443;SDS011;6794;59.218;18.218;2023-05-27T12:35:05;2.13;;;1.20;;
13443;SDS011;6794;59.218;18.218;2023-05-27T12:37:31;1.53;;;1.10;;
13443;SDS011;6794;59.218;18.218;2023-05-27T12:39:57;2.27;;;1.20;;
13443;SDS011;6794;59.218;18.218;2023-05-27T12:42:23;2.20;;;1.57;;
13443;SDS011;6794;59.218;18.218;2023-05-27T12:44:49;1.50;;;1.20;;
13443;SDS011;6794;59.218;18.218;2023-05-27T12:47:15;2.77;;;1.30;;
13443;SDS011;6794;59.218;18.218;2023-05-27T12:49:41;3.43;;;1.20;;
13443;SDS011;6794;59.218;18.218;2023-05-27T12:52:07;1.67;;;1.27;;
13443;SDS011;6794;59.218;18.218;2023-05-27T12:54:33;5.00;;;1.57;;
13443;SDS011;6794;59.218;18.218;2023-05-27T12:57:00;1.83;;;1.40;;
13443;SDS011;6794;59.218;18.218;2023-05-27T12:59:30;2.43;;;1.20;;
13443;SDS011;6794;59.218;18.218;2023-05-27T13:01:56;2.90;;;1.43;;
13443;SDS011;6794;59.218;18.218;2023-05-27T13:04:22;1.93;;;1.33;;
13443;SDS011;6794;59.218;18.218;2023-05-27T13:06:48;3.73;;;1.00;;
13443;SDS011;6794;59.218;18.218;2023-05-27T13:09:14;1.53;;;1.27;;
13443;SDS011;6794;59.218;18.218;2023-05-27T13:11:41;1.70;;;1.10;;
13443;SDS011;6794;59.218;18.218;2023-05-27T13:14:07;2.47;;;1.10;;
13443;SDS011;6794;59.218;18.218;2023-05-27T13:16:33;3.20;;;1.20;;
13443;SDS011;6794;59.218;18.218;2023-05-27T13:18:59;1.40;;;1.30;;
13443;SDS011;6794;59.218;18.218;2023-05-27T13:21:25;3.40;;;1.10;;
13443;SDS011;6794;59.218;18.218;2023-05-27T13:23:53;3.10;;;1.37;;
13443;SDS011;6794;59.218;18.218;2023-05-27T13:26:19;1.37;;;1.10;;
13443;SDS011;6794;59.218;18.218;2023-05-27T13:28:45;1.10;;;1.00;;
13443;SDS011;6794;59.218;18.218;2023-05-27T13:31:11;1.57;;;1.10;;
13443;SDS011;6794;59.218;18.218;2023-05-27T13:33:38;2.17;;;1.00;;
13443;SDS011;6794;59.218;18.218;2023-05-27T13:36:04;0.90;;;0.90;;
13443;SDS011;6794;59.218;18.218;2023-05-27T13:38:31;4.30;;;1.27;;
13443;SDS011;6794;59.218;18.218;2023-05-27T13:40:58;1.87;;;1.23;;
13443;SDS011;6794;59.218;18.218;2023-05-27T13:43:27;2.87;;;1.30;;
13443;SDS011;6794;59.218;18.218;2023-05-27T13:45:53;1.87;;;1.07;;
13443;SDS011;6794;59.218;18.218;2023-05-27T13:48:19;1.10;;;1.10;;
13443;SDS011;6794;59.218;18.218;2023-05-27T13:50:45;2.20;;;1.30;;
13443;SDS011;6794;59.218;18.218;2023-05-27T13:53:11;2.57;;;1.30;;
13443;SDS011;6794;59.218;18.218;2023-05-27T13:55:37;2.93;;;0.90;;
13443;SDS011;6794;59.218;18.218;2023-05-27T13:58:03;1.50;;;1.37;;
13443;SDS011;6794;59.218;18.218;2023-05-27T14:00:29;2.03;;;1.10;;
13443;SDS011;6794;59.218;18.218;2023-05-27T14:02:56;1.17;;;1.00;;
13443;SDS011;6794;59.218;18.218;2023-05-27T14:05:24;3.03;;;1.20;;
13443;SDS011;6794;59.218;18.218;2023-05-27T14:07:51;1.47;;;1.10;;
13443;SDS011;6794;59.218;18.218;2023-05-27T14:10:17;1.83;;;1.10;;
13443;SDS011;6794;59.218;18.218;2023-05-27T14:12:43;15.67;;;1.63;;
13443;SDS011;6794;59.218;18.218;2023-05-27T14:15:10;1.83;;;1.10;;
13443;SDS011;6794;59.218;18.218;2023-05-27T14:17:36;1.23;;;1.10;;
13443;SDS011;6794;59.218;18.218;2023-05-27T14:20:03;1.53;;;1.20;;
13443;SDS011;6794;59.218;18.218;2023-05-27T14:22:35;1.20;;;1.00;;
13443;SDS011;6794;59.218;18.218;2023-05-27T14:25:01;1.47;;;1.20;;
13443;SDS011;6794;59.218;18.218;2023-05-27T14:27:27;4.93;;;1.60;;
13443;SDS011;6794;59.218;18.218;2023-05-27T14:29:53;1.27;;;1.17;;
13443;SDS011;6794;59.218;18.218;2023-05-27T14:32:19;2.80;;;1.20;;
13443;SDS011;6794;59.218;18.218;2023-05-27T14:34:45;2.33;;;1.30;;
13443;SDS011;6794;59.218;18.218;2023-05-27T14:37:11;2.50;;;1.10;;
13443;SDS011;6794;59.218;18.218;2023-05-27T14:39:37;1.10;;;1.00;;
13443;SDS011;6794;59.218;18.218;2023-05-27T14:42:03;1.20;;;1.10;;
13443;SDS011;6794;59.218;18.218;2023-05-27T14:44:31;1.97;;;1.20;;
13443;SDS011;6794;59.218;18.218;2023-05-27T14:46:57;1.97;;;1.17;;
13443;SDS011;6794;59.218;18.218;2023-05-27T14:49:23;2.50;;;1.20;;
13443;SDS011;6794;59.218;18.218;2023-05-27T14:51:49;3.63;;;1.20;;
13443;SDS011;6794;59.218;18.218;2023-05-27T14:54:16;1.87;;;1.30;;
13443;SDS011;6794;59.218;18.218;2023-05-27T14:56:42;4.50;;;1.30;;
13443;SDS011;6794;59.218;18.218;2023-05-27T14:59:08;1.63;;;1.20;;
13443;SDS011;6794;59.218;18.218;2023-05-27T15:01:34;2.47;;;1.20;;
13443;SDS011;6794;59.218;18.218;2023-05-27T15:04:00;2.50;;;1.27;;
13443;SDS011;6794;59.218;18.218;2023-05-27T15:06:26;2.40;;;1.20;;
13443;SDS011;6794;59.218;18.218;2023-05-27T15:08:52;2.23;;;1.33;;
13443;SDS011;6794;59.218;18.218;2023-05-27T15:11:18;1.57;;;1.27;;
13443;SDS011;6794;59.218;18.218;2023-05-27T15:13:44;3.27;;;1.57;;
13443;SDS011;6794;59.218;18.218;2023-05-27T15:16:10;1.90;;;1.30;;
13443;SDS011;6794;59.218;18.218;2023-05-27T15:18:36;2.90;;;1.40;;
13443;SDS011;6794;59.218;18.218;2023-05-27T15:21:02;7.67;;;1.50;;
13443;SDS011;6794;59.218;18.218;2023-05-27T15:23:28;3.27;;;1.20;;
13443;SDS011;6794;59.218;18.218;2023-05-27T15:25:54;2.47;;;1.10;;
13443;SDS011;6794;59.218;18.218;2023-05-27T15:28:20;1.63;;;1.17;;
13443;SDS011;6794;59.218;18.218;2023-05-27T15:30:46;1.80;;;1.20;;
13443;SDS011;6794;59.218;18.218;2023-05-27T15:33:12;2.23;;;1.27;;
13443;SDS011;6794;59.218;18.218;2023-05-27T15:35:38;3.27;;;1.23;;
13443;SDS011;6794;59.218;18.218;2023-05-27T15:38:04;4.57;;;1.50;;
13443;SDS011;6794;59.218;18.218;2023-05-27T15:40:31;3.07;;;1.27;;
13443;SDS011;6794;59.218;18.218;2023-05-27T15:42:58;2.33;;;1.70;;
13443;SDS011;6794;59.218;18.218;2023-05-27T15:45:24;1.30;;;1.13;;
13443;SDS011;6794;59.218;18.218;2023-05-27T15:47:50;1.73;;;1.20;;
13443;SDS011;6794;59.218;18.218;2023-05-27T15:50:19;2.50;;;1.27;;
13443;SDS011;6794;59.218;18.218;2023-05-27T15:52:45;2.17;;;1.40;;
13443;SDS011;6794;59.218;18.218;2023-05-27T15:55:11;4.03;;;1.70;;
13443;SDS011;6794;59.218;18.218;2023-05-27T15:57:37;4.77;;;1.33;;
13443;SDS011;6794;59.218;18.218;2023-05-27T16:00:03;3.90;;;1.23;;
13443;SDS011;6794;59.218;18.218;2023-05-27T16:02:29;3.67;;;1.20;;
13443;SDS011;6794;59.218;18.218;2023-05-27T16:04:55;2.50;;;1.40;;
13443;SDS011;6794;59.218;18.218;2023-05-27T16:07:21;2.03;;;1.30;;
13443;SDS011;6794;59.218;18.218;2023-05-27T16:09:47;2.13;;;1.23;;
13443;SDS011;6794;59.218;18.218;2023-05-27T16:12:13;1.77;;;1.07;;
13443;SDS011;6794;59.218;18.218;2023-05-27T16:14:39;3.60;;;1.50;;
13443;SDS011;6794;59.218;18.218;2023-05-27T16:17:05;2.00;;;1.13;;
13443;SDS011;6794;59.218;18.218;2023-05-27T16:19:32;1.53;;;1.30;;
13443;SDS011;6794;59.218;18.218;2023-05-27T16:21:58;1.60;;;1.20;;
13443;SDS011;6794;59.218;18.218;2023-05-27T16:24:24;1.97;;;1.37;;
13443;SDS011;6794;59.218;18.218;2023-05-27T16:26:50;3.03;;;1.43;;